Search for airport 
image banner adimage banner adimage banner ad
image banner ad

70PA - Double D Ranch

Located in Mechanicsburg, United States

ICAO - 70PA, IATA -

Data provided by Airmate  

General information

Coordinates: N40°15'22" W77°3'22"
Elevation is 418 feet MSL.
 
View others Airports in Pennsylvania

Operational data

Special qualification required
Current time UTC:
Current local time:
Weather at : KCXY - Capital City ( 18 km )
METAR: KCXY 071156Z 09005KT 10SM FEW080 BKN110 11/03 A2992 RMK AO2 SLP133 T01060033 10106 20061 50001
View NOTAMs / SUP AIP / TFR affecting this airport [VIEW]
Communications frequencies: [VIEW]

Runways:

Airport contact information

Address: Mechanicsburg United States

Satellite view of 70PA